createdAt,value
2019-03-12T00:00:22.022Z,99412.03
2019-03-12T00:02:28.927Z,99418.13
2019-03-12T00:04:35.571Z,99419.48
2019-03-12T00:06:42.224Z,99418.73
2019-03-12T00:08:48.936Z,99423.58
2019-03-12T00:10:55.603Z,99427.09
2019-03-12T00:13:02.262Z,99425.36
2019-03-12T00:15:09.150Z,99427.03
2019-03-12T00:17:15.814Z,99419.20
2019-03-12T00:19:22.544Z,99424.89
2019-03-12T00:21:29.232Z,99416.18
2019-03-12T00:23:35.887Z,99417.05
2019-03-12T00:25:42.546Z,99410.53
2019-03-12T00:27:49.239Z,99415.38
2019-03-12T00:29:55.894Z,99411.84
2019-03-12T00:32:02.581Z,99420.50
2019-03-12T00:34:09.256Z,99417.43
2019-03-12T00:36:15.920Z,99415.23
2019-03-12T00:38:22.646Z,99425.63
2019-03-12T00:40:29.343Z,99423.91
2019-03-12T00:42:35.998Z,99429.09
2019-03-12T00:44:42.665Z,99425.03
2019-03-12T00:46:49.523Z,99428.06
2019-03-12T00:48:56.187Z,99434.96
2019-03-12T00:51:02.921Z,99435.33
2019-03-12T00:53:09.615Z,99441.80
2019-03-12T00:55:16.295Z,99442.17
2019-03-12T00:57:22.956Z,99445.62
2019-03-12T00:59:29.639Z,99444.64
2019-03-12T01:01:37.385Z,99445.00
2019-03-12T01:03:44.050Z,99443.97
2019-03-12T01:05:50.802Z,99451.61
2019-03-12T01:07:57.630Z,99450.00
2019-03-12T01:10:06.275Z,99461.95
2019-03-12T01:12:13.048Z,99458.25
2019-03-12T01:14:19.810Z,99456.37
2019-03-12T01:16:26.462Z,99461.44
2019-03-12T01:18:33.148Z,99460.37
2019-03-12T01:20:39.813Z,99463.77
2019-03-12T01:22:46.478Z,99468.94
2019-03-12T01:24:53.169Z,99476.65
2019-03-12T01:26:59.863Z,99475.34
2019-03-12T01:29:06.593Z,99472.33
2019-03-12T01:31:13.254Z,99482.64
2019-03-12T01:33:19.994Z,99488.52
2019-03-12T01:35:26.654Z,99486.22
2019-03-12T01:37:33.341Z,99486.52
2019-03-12T01:39:39.992Z,99490.79
2019-03-12T01:41:46.653Z,99486.30
2019-03-12T01:43:53.342Z,99497.40
2019-03-12T01:46:00.057Z,99495.45
2019-03-12T01:48:06.754Z,99498.66
2019-03-12T01:50:15.743Z,99510.56
2019-03-12T01:52:22.403Z,99512.92
2019-03-12T01:54:29.133Z,99512.64
2019-03-12T01:56:35.832Z,99512.45
2019-03-12T01:58:42.568Z,99515.65
2019-03-12T02:00:49.303Z,99518.94
2019-03-12T02:02:56.471Z,99520.07
2019-03-12T02:05:03.304Z,99527.30
2019-03-12T02:07:11.132Z,99533.66
2019-03-12T02:09:17.825Z,99529.94
2019-03-12T02:11:24.562Z,99525.35
2019-03-12T02:13:31.218Z,99529.08
2019-03-12T02:15:38.152Z,99531.62
2019-03-12T02:17:44.816Z,99530.55
2019-03-12T02:19:51.478Z,99532.53
2019-03-12T02:21:58.171Z,99537.20
2019-03-12T02:24:04.821Z,99544.41
2019-03-12T02:26:11.498Z,99549.10
2019-03-12T02:28:18.246Z,99549.39
2019-03-12T02:30:25.133Z,99553.52
2019-03-12T02:32:31.787Z,99555.91
2019-03-12T02:34:38.468Z,99561.39
2019-03-12T02:36:45.139Z,99573.80
2019-03-12T02:38:51.862Z,99575.03
2019-03-12T02:40:59.552Z,99582.73
2019-03-12T02:43:06.437Z,99585.55
2019-03-12T02:45:17.114Z,99595.75
2019-03-12T02:47:24.043Z,99593.41
2019-03-12T02:49:30.714Z,99598.82
2019-03-12T02:51:37.349Z,99608.33
2019-03-12T02:53:44.042Z,99611.27
2019-03-12T02:55:50.762Z,99613.39
2019-03-12T02:57:57.418Z,99609.88
2019-03-12T03:00:07.415Z,99610.63
2019-03-12T03:02:14.073Z,99611.73
2019-03-12T03:04:20.857Z,99624.66
2019-03-12T03:06:32.153Z,99623.48
2019-03-12T03:08:38.883Z,99626.36
2019-03-12T03:10:45.540Z,99633.20
2019-03-12T03:12:52.491Z,99635.29
2019-03-12T03:14:59.149Z,99633.45
2019-03-12T03:17:07.184Z,99636.31
2019-03-12T03:19:13.939Z,99636.11
2019-03-12T03:21:20.603Z,99636.83
2019-03-12T03:23:27.285Z,99644.48
2019-03-12T03:25:34.148Z,99645.91
2019-03-12T03:27:40.814Z,99653.53
2019-03-12T03:29:47.476Z,99664.12
2019-03-12T03:31:54.163Z,99663.30
2019-03-12T03:34:00.834Z,99665.97
2019-03-12T03:36:07.589Z,99670.27
2019-03-12T03:38:14.243Z,99671.98
2019-03-12T03:40:22.185Z,99673.20
2019-03-12T03:42:30.039Z,99674.09
2019-03-12T03:44:36.841Z,99677.03
2019-03-12T03:46:43.501Z,99682.70
2019-03-12T03:48:50.179Z,99679.22
2019-03-12T03:50:56.854Z,99685.38
2019-03-12T03:53:03.528Z,99691.45
2019-03-12T03:55:22.619Z,99692.14
2019-03-12T03:57:28.428Z,99697.73
2019-03-12T03:59:34.945Z,99697.63
2019-03-12T04:01:41.722Z,99699.28
2019-03-12T04:03:48.404Z,99702.66
2019-03-12T04:05:56.069Z,99706.05
2019-03-12T04:08:02.791Z,99711.11
2019-03-12T04:10:12.474Z,99703.52
2019-03-12T04:12:19.130Z,99713.61
2019-03-12T04:14:25.838Z,99723.32
2019-03-12T04:16:32.552Z,99725.64
2019-03-12T04:18:39.331Z,99730.19
2019-03-12T04:20:45.911Z,99736.69
2019-03-12T04:22:52.589Z,99739.77
2019-03-12T04:24:59.388Z,99733.41
2019-03-12T04:27:07.245Z,99732.52
2019-03-12T04:29:13.939Z,99742.95
2019-03-12T04:31:20.673Z,99744.94
2019-03-12T04:33:54.177Z,99751.57
2019-03-12T04:36:00.917Z,99746.92
2019-03-12T04:38:07.593Z,99744.01
2019-03-12T04:40:14.745Z,99748.87
2019-03-12T04:42:21.520Z,99748.39
2019-03-12T04:44:28.176Z,99753.90
2019-03-12T04:46:34.915Z,99754.17
2019-03-12T04:48:41.589Z,99759.37
2019-03-12T04:50:48.322Z,99770.25
2019-03-12T04:52:55.218Z,99768.95
2019-03-12T04:55:01.915Z,99769.62
2019-03-12T04:57:09.646Z,99768.74
2019-03-12T04:59:16.305Z,99769.77
2019-03-12T05:01:22.990Z,99773.33
2019-03-12T05:03:29.646Z,99771.72
2019-03-12T05:05:36.303Z,99782.08
2019-03-12T05:07:43.077Z,99784.78
2019-03-12T05:09:49.733Z,99784.23
2019-03-12T05:11:56.392Z,99794.05
2019-03-12T05:14:25.002Z,99788.44
2019-03-12T05:16:31.741Z,99798.30
2019-03-12T05:18:38.408Z,99802.20
2019-03-12T05:20:45.092Z,99809.92
2019-03-12T05:22:51.813Z,99812.04
2019-03-12T05:24:58.461Z,99815.46
2019-03-12T05:27:05.162Z,99812.38
2019-03-12T05:29:11.888Z,99815.88
2019-03-12T05:31:18.572Z,99818.86
2019-03-12T05:33:26.224Z,99818.22
2019-03-12T05:35:32.893Z,99825.14
2019-03-12T05:37:39.552Z,99827.41
2019-03-12T05:39:46.156Z,99836.41
2019-03-12T05:41:52.811Z,99824.60
2019-03-12T05:43:59.490Z,99832.37
2019-03-12T05:46:06.178Z,99835.16
2019-03-12T05:48:12.938Z,99833.34
2019-03-12T05:50:21.211Z,99841.89
2019-03-12T05:52:27.889Z,99849.98
2019-03-12T05:54:34.609Z,99853.58
2019-03-12T05:56:41.272Z,99856.13
2019-03-12T05:58:48.952Z,99862.30
2019-03-12T06:00:55.685Z,99863.63
2019-03-12T06:03:02.345Z,99865.28
2019-03-12T06:05:09.337Z,99869.55
2019-03-12T06:07:15.992Z,99872.69
2019-03-12T06:09:30.087Z,99884.89
2019-03-12T06:11:31.256Z,99881.90
2019-03-12T06:13:37.905Z,99889.22
2019-03-12T06:15:44.578Z,99890.88
2019-03-12T06:17:51.238Z,99892.53
2019-03-12T06:19:57.903Z,99899.56
2019-03-12T06:22:04.624Z,99899.34
2019-03-12T06:24:11.301Z,99903.34
2019-03-12T06:26:17.949Z,99911.61
2019-03-12T06:28:24.672Z,99909.37
2019-03-12T06:30:33.005Z,99911.95
2019-03-12T06:32:56.308Z,99911.88
2019-03-12T06:35:04.535Z,99913.50
2019-03-12T06:37:12.853Z,99918.94
2019-03-12T06:39:19.305Z,99921.14
2019-03-12T06:41:27.585Z,99922.52
2019-03-12T06:43:53.940Z,99936.78
2019-03-12T06:46:11.142Z,99937.42
2019-03-12T06:48:17.574Z,99941.61
2019-03-12T06:50:28.575Z,99935.03
2019-03-12T06:52:48.989Z,99936.12
2019-03-12T06:54:57.282Z,99938.73
2019-03-12T06:57:17.483Z,99942.63
2019-03-12T06:59:25.779Z,99947.95
2019-03-12T07:01:37.036Z,99947.55
2019-03-12T07:03:48.059Z,99944.77
2019-03-12T07:05:56.358Z,99948.11
2019-03-12T07:08:20.682Z,99946.74
2019-03-12T07:10:29.002Z,99947.69
2019-03-12T07:12:46.248Z,99947.73
2019-03-12T07:15:03.698Z,99956.33
2019-03-12T07:17:14.743Z,99963.61
2019-03-12T07:19:33.469Z,99958.62
2019-03-12T07:21:41.765Z,99962.09
2019-03-12T07:23:56.025Z,99966.58
2019-03-12T07:26:13.115Z,99968.31
2019-03-12T07:28:31.568Z,99970.51
2019-03-12T07:30:58.450Z,99974.38
2019-03-12T07:33:07.596Z,99976.52
2019-03-12T07:35:15.014Z,99969.35
2019-03-12T07:37:38.284Z,99972.05
2019-03-12T07:39:51.810Z,99973.89
2019-03-12T07:42:06.074Z,99978.66
2019-03-12T07:44:17.117Z,99985.47
2019-03-12T07:46:23.552Z,99985.72
2019-03-12T07:48:32.718Z,99987.58
2019-03-12T07:50:58.546Z,99983.86
2019-03-12T07:53:06.708Z,99984.08
2019-03-12T07:55:15.005Z,99986.52
2019-03-12T07:57:23.338Z,99984.45
2019-03-12T07:59:34.675Z,99984.06
2019-03-12T08:01:42.974Z,99986.84
2019-03-12T08:03:54.009Z,99978.61
2019-03-12T08:06:14.338Z,99990.03
2019-03-12T08:08:22.649Z,99980.29
2019-03-12T08:10:48.073Z,99981.40
2019-03-12T08:13:09.878Z,99974.22
2019-03-12T08:15:23.422Z,99972.76
2019-03-12T08:17:34.106Z,99977.56
2019-03-12T08:19:45.328Z,99976.55
2019-03-12T08:22:02.608Z,99976.16
2019-03-12T08:24:21.046Z,99981.08
2019-03-12T08:26:29.349Z,99981.67
2019-03-12T08:28:46.619Z,99977.00
2019-03-12T08:31:06.845Z,99976.41
2019-03-12T08:33:31.499Z,99970.77
2019-03-12T08:35:40.910Z,99974.55
2019-03-12T08:37:49.231Z,99978.33
2019-03-12T08:40:03.522Z,99978.27
2019-03-12T08:42:20.689Z,99977.64
2019-03-12T08:44:31.987Z,99986.66
2019-03-12T08:46:43.425Z,99981.13
2019-03-12T08:48:54.691Z,99988.52
2019-03-12T08:51:05.937Z,99986.58
2019-03-12T08:53:20.027Z,99985.26
2019-03-12T08:55:37.303Z,99984.97
2019-03-12T08:57:48.167Z,99985.89
2019-03-12T09:00:12.526Z,99985.69
2019-03-12T09:02:20.819Z,99992.26
2019-03-12T09:04:39.229Z,99984.42
2019-03-12T09:07:05.819Z,99986.63
2019-03-12T09:09:14.210Z,99987.81
2019-03-12T09:11:37.569Z,99990.53
2019-03-12T09:14:02.141Z,99994.53
2019-03-12T09:16:26.809Z,99994.06
2019-03-12T09:18:38.039Z,100001.18
2019-03-12T09:20:52.340Z,100003.08
2019-03-12T09:23:09.702Z,100001.95
2019-03-12T09:25:20.723Z,99998.27
2019-03-12T09:27:47.358Z,99999.09
2019-03-12T09:29:55.651Z,100000.34
2019-03-12T09:32:20.057Z,100006.16
2019-03-12T09:34:40.692Z,100014.54
2019-03-12T09:36:47.112Z,100021.59
2019-03-12T09:38:55.431Z,100026.31
2019-03-12T09:41:11.126Z,100038.92
2019-03-12T09:43:22.363Z,100036.45
2019-03-12T09:45:36.632Z,100025.17
2019-03-12T09:47:56.950Z,100034.31
2019-03-12T09:50:08.791Z,100031.38
2019-03-12T09:52:23.092Z,100032.84
2019-03-12T09:54:41.490Z,100023.99
2019-03-12T09:56:52.503Z,100032.11
2019-03-12T09:59:06.620Z,100030.75
2019-03-12T10:01:14.919Z,100023.00
2019-03-12T10:03:39.242Z,100030.79
2019-03-12T10:05:57.678Z,100026.36
2019-03-12T10:08:09.812Z,100029.34
2019-03-12T10:10:20.919Z,100024.84
2019-03-12T10:12:34.991Z,100028.52
2019-03-12T10:15:01.516Z,100027.13
2019-03-12T10:17:26.257Z,100023.98
2019-03-12T10:19:34.587Z,100023.94
2019-03-12T10:21:54.853Z,100016.76
2019-03-12T10:24:15.123Z,100016.14
2019-03-12T10:26:23.444Z,100019.55
2019-03-12T10:28:31.754Z,100023.61
2019-03-12T10:30:41.130Z,100033.47
2019-03-12T10:32:49.455Z,100031.11
2019-03-12T10:35:00.486Z,100032.70
2019-03-12T10:37:13.940Z,100032.57
2019-03-12T10:39:48.020Z,100046.66
2019-03-12T10:41:56.320Z,100045.09
2019-03-12T10:44:04.664Z,100044.28
2019-03-12T10:46:16.163Z,100052.89
2019-03-12T10:48:22.839Z,100045.88
2019-03-12T10:50:29.589Z,100045.91
2019-03-12T10:52:36.296Z,100046.80
2019-03-12T10:54:42.949Z,100045.88
2019-03-12T10:56:49.609Z,100052.48
2019-03-12T10:58:56.294Z,100049.27
2019-03-12T11:01:02.950Z,100050.58
2019-03-12T11:03:09.675Z,100050.94
2019-03-12T11:05:17.071Z,100049.44
2019-03-12T11:07:23.736Z,100043.30
2019-03-12T11:09:30.470Z,100036.49
2019-03-12T11:11:37.158Z,100025.31
2019-03-12T11:13:43.818Z,100030.48
2019-03-12T11:15:50.495Z,100039.02
2019-03-12T11:17:57.177Z,100034.23
2019-03-12T11:20:04.998Z,100032.23
2019-03-12T11:22:11.651Z,100037.37
2019-03-12T11:24:18.335Z,100035.59
2019-03-12T11:26:24.996Z,100036.61
2019-03-12T11:28:31.656Z,100037.61
2019-03-12T11:30:38.347Z,100052.36
2019-03-12T11:32:45.002Z,100043.25
2019-03-12T11:34:51.660Z,100045.66
2019-03-12T11:36:58.357Z,100037.06
2019-03-12T11:39:06.205Z,100034.97
2019-03-12T11:41:14.455Z,100025.52
2019-03-12T11:43:21.139Z,100023.11
2019-03-12T11:45:36.221Z,100022.95
2019-03-12T11:47:36.156Z,100033.78
2019-03-12T11:49:42.869Z,100023.00
2019-03-12T11:51:49.516Z,100018.88
2019-03-12T11:53:56.188Z,100022.63
2019-03-12T11:56:02.965Z,100014.63
2019-03-12T11:58:09.705Z,100016.31
2019-03-12T12:00:27.982Z,100015.77
2019-03-12T12:02:34.965Z,100012.72
2019-03-12T12:04:41.628Z,100015.09
2019-03-12T12:06:49.307Z,100012.58
2019-03-12T12:08:57.008Z,100015.20
2019-03-12T12:11:03.673Z,100016.52
2019-03-12T12:13:10.438Z,100029.28
2019-03-12T12:15:18.119Z,100026.30
2019-03-12T12:17:24.845Z,100023.14
2019-03-12T12:19:31.595Z,100025.30
2019-03-12T12:21:38.265Z,100032.14
2019-03-12T12:23:45.000Z,100035.25
2019-03-12T12:25:51.656Z,100033.63
2019-03-12T12:27:58.336Z,100042.05
2019-03-12T12:30:11.468Z,100032.11
2019-03-12T12:32:18.130Z,100031.06
2019-03-12T12:34:24.827Z,100034.16
2019-03-12T12:36:31.481Z,100038.30
2019-03-12T12:38:38.203Z,100037.23
2019-03-12T12:40:44.948Z,100034.69
2019-03-12T12:42:51.718Z,100026.56
2019-03-12T12:44:58.379Z,100025.09
2019-03-12T12:47:05.052Z,100027.55
2019-03-12T12:49:11.709Z,100030.31
2019-03-12T12:51:18.371Z,100019.67
2019-03-12T12:53:25.183Z,100017.67
2019-03-12T12:55:33.030Z,100011.02
2019-03-12T12:57:39.678Z,100007.92
2019-03-12T12:59:46.433Z,100007.91
2019-03-12T13:01:53.156Z,100009.44
2019-03-12T13:03:59.850Z,100013.59
2019-03-12T13:06:06.547Z,100013.16
2019-03-12T13:08:14.254Z,100014.30
2019-03-12T13:10:26.796Z,100013.57
2019-03-12T13:12:33.491Z,100007.45
2019-03-12T13:14:41.896Z,100006.45
2019-03-12T13:16:48.861Z,100006.97
2019-03-12T13:18:55.541Z,100011.59
2019-03-12T13:21:02.201Z,100011.69
2019-03-12T13:23:09.867Z,100009.53
2019-03-12T13:25:18.315Z,100007.33
2019-03-12T13:27:25.070Z,99996.02
2019-03-12T13:29:31.794Z,99989.69
2019-03-12T13:31:38.540Z,99988.73
2019-03-12T13:33:45.195Z,100009.77
2019-03-12T13:35:51.926Z,99996.02
2019-03-12T13:38:00.398Z,100002.40
2019-03-12T13:40:12.151Z,99996.81
2019-03-12T13:42:18.812Z,100002.98
2019-03-12T13:44:26.521Z,100011.81
2019-03-12T13:46:33.398Z,100002.89
2019-03-12T13:48:40.045Z,99994.83
2019-03-12T13:50:46.980Z,99990.41
2019-03-12T13:52:53.843Z,99993.80
2019-03-12T13:55:01.907Z,99994.97
2019-03-12T13:57:10.154Z,100001.52
2019-03-12T13:59:16.805Z,99998.30
2019-03-12T14:01:23.472Z,100004.81
2019-03-12T14:03:30.135Z,99998.77
2019-03-12T14:05:36.857Z,100003.32
2019-03-12T14:07:43.513Z,100009.81
2019-03-12T14:09:50.268Z,100003.13
2019-03-12T14:11:59.216Z,100003.27
2019-03-12T14:14:05.425Z,100001.82
2019-03-12T14:16:12.097Z,99999.47
2019-03-12T14:18:19.006Z,100006.17
2019-03-12T14:20:53.435Z,99996.44
2019-03-12T14:23:00.180Z,100001.26
2019-03-12T14:25:09.043Z,99996.43
2019-03-12T14:27:16.599Z,99997.00
2019-03-12T14:29:23.379Z,99997.94
2019-03-12T14:31:30.115Z,99999.80
2019-03-12T14:33:37.943Z,99998.87
2019-03-12T14:35:51.351Z,100002.09
2019-03-12T14:37:53.100Z,100001.44
2019-03-12T14:39:59.818Z,99998.25
2019-03-12T14:42:06.570Z,100004.80
2019-03-12T14:44:14.753Z,100002.19
2019-03-12T14:46:21.753Z,99999.98
2019-03-12T14:48:53.423Z,99994.08
2019-03-12T14:51:01.369Z,100005.98
2019-03-12T14:53:22.107Z,100001.81
2019-03-12T14:55:28.178Z,99998.97
2019-03-12T14:57:34.837Z,100007.86
2019-03-12T14:59:41.487Z,100000.70
2019-03-12T15:01:48.173Z,100002.84
2019-03-12T15:03:55.302Z,99997.56
2019-03-12T15:06:01.957Z,99999.23
2019-03-12T15:08:12.264Z,99995.25
2019-03-12T15:10:18.984Z,99997.72
2019-03-12T15:12:25.754Z,99996.20
2019-03-12T15:14:32.749Z,100003.11
2019-03-12T15:16:39.472Z,100002.91
2019-03-12T15:18:46.520Z,100002.34
2019-03-12T15:20:53.189Z,100003.95
2019-03-12T15:22:59.917Z,100000.08
2019-03-12T15:25:10.293Z,100001.03
2019-03-12T15:27:18.234Z,99993.39
2019-03-12T15:29:24.884Z,100000.56
2019-03-12T15:31:31.552Z,99992.76
2019-03-12T15:33:38.229Z,99993.28
2019-03-12T15:35:44.951Z,99986.83
2019-03-12T15:37:51.652Z,99994.69
2019-03-12T15:39:58.334Z,99992.58
2019-03-12T15:42:04.977Z,99992.23
2019-03-12T15:44:11.629Z,99988.14
2019-03-12T15:46:18.321Z,99990.76
2019-03-12T15:48:24.969Z,99982.91
2019-03-12T15:50:34.570Z,99990.39
2019-03-12T15:52:40.008Z,99990.29
2019-03-12T15:54:48.076Z,99989.40
2019-03-12T15:56:54.720Z,99985.05
2019-03-12T15:59:01.398Z,99987.11
2019-03-12T16:01:08.126Z,99982.64
2019-03-12T16:03:15.742Z,99989.14
2019-03-12T16:05:22.521Z,99981.19
2019-03-12T16:07:29.171Z,99979.46
2019-03-12T16:09:35.894Z,99976.38
2019-03-12T16:11:42.578Z,99982.08
2019-03-12T16:13:49.234Z,99981.04
2019-03-12T16:15:55.956Z,99978.73
2019-03-12T16:18:02.701Z,99971.30
2019-03-12T16:20:17.550Z,99973.50
2019-03-12T16:22:24.287Z,99972.08
2019-03-12T16:24:30.987Z,99964.92
2019-03-12T16:26:38.624Z,99964.86
2019-03-12T16:28:45.284Z,99967.27
2019-03-12T16:30:52.032Z,99958.38
2019-03-12T16:32:58.840Z,99962.61
2019-03-12T16:35:07.979Z,99956.65
2019-03-12T16:37:34.820Z,99958.52
2019-03-12T16:42:57.662Z,99962.23
2019-03-12T16:45:41.445Z,99946.00
2019-03-12T16:48:18.684Z,99947.42
2019-03-12T16:50:44.368Z,99950.19
2019-03-12T16:53:01.654Z,99952.61
2019-03-12T16:55:19.047Z,99951.55
2019-03-12T16:57:25.884Z,99947.52
2019-03-12T16:59:32.623Z,99950.05
2019-03-12T17:01:41.257Z,99956.47
2019-03-12T17:03:47.985Z,99959.74
2019-03-12T17:05:56.323Z,99962.30
2019-03-12T17:08:03.094Z,99963.05
2019-03-12T17:10:17.225Z,99975.93
2019-03-12T17:12:24.032Z,99973.89
2019-03-12T17:14:38.778Z,99978.82
2019-03-12T17:16:42.088Z,99978.97
2019-03-12T17:18:49.536Z,99980.04
2019-03-12T17:20:58.335Z,99978.11
2019-03-12T17:23:06.085Z,99980.95
2019-03-12T17:25:13.512Z,99978.58
2019-03-12T17:27:20.262Z,99981.19
2019-03-12T17:29:29.097Z,99982.05
2019-03-12T17:31:42.935Z,99979.38
2019-03-12T17:33:53.534Z,99978.84
2019-03-12T17:36:06.284Z,99984.00
2019-03-12T17:38:18.814Z,99975.45
2019-03-12T17:40:27.423Z,99976.55
2019-03-12T17:42:34.272Z,99984.09
2019-03-12T17:44:41.002Z,99977.19
2019-03-12T17:47:00.380Z,99979.93
2019-03-12T17:49:07.134Z,99976.66
2019-03-12T17:51:13.790Z,99981.52
2019-03-12T17:53:20.468Z,99980.78
2019-03-12T17:55:27.205Z,99976.17
2019-03-12T17:57:33.874Z,99981.97
2019-03-12T17:59:40.644Z,99982.60
2019-03-12T18:01:47.379Z,99988.44
2019-03-12T18:03:54.441Z,99980.45
2019-03-12T18:06:16.293Z,99984.09
2019-03-12T18:08:23.141Z,99982.14
2019-03-12T18:10:29.966Z,99981.81
2019-03-12T18:12:36.661Z,99982.88
2019-03-12T18:14:46.269Z,99982.19
2019-03-12T18:16:54.862Z,99984.99
2019-03-12T18:19:12.532Z,99982.56
2019-03-12T18:21:20.999Z,99977.97
2019-03-12T18:23:28.861Z,99979.58
2019-03-12T18:25:44.967Z,99978.47
2019-03-12T18:27:59.708Z,99977.37
2019-03-12T18:30:19.291Z,99986.42
2019-03-12T18:32:36.507Z,99978.85
2019-03-12T18:34:46.389Z,99975.29
2019-03-12T18:36:54.903Z,99974.66
2019-03-12T18:39:03.244Z,99971.03
2019-03-12T18:41:11.830Z,99975.67
2019-03-12T18:43:18.577Z,99969.48
2019-03-12T18:45:30.943Z,99968.84
2019-03-12T18:47:38.754Z,99970.89
2019-03-12T18:49:45.475Z,99973.34
2019-03-12T18:51:55.528Z,99967.22
2019-03-12T18:54:02.259Z,99970.16
2019-03-12T18:56:08.992Z,99969.53
2019-03-12T18:58:15.750Z,99970.91
2019-03-12T19:00:22.479Z,99971.91
2019-03-12T19:02:29.311Z,99976.06
2019-03-12T19:04:36.004Z,99975.59
2019-03-12T19:06:44.537Z,99978.63
2019-03-12T19:08:52.421Z,99972.66
2019-03-12T19:11:00.603Z,99972.13
2019-03-12T19:13:07.340Z,99968.97
2019-03-12T19:15:16.649Z,99970.20
2019-03-12T19:17:23.416Z,99972.72
2019-03-12T19:19:40.426Z,99973.20
2019-03-12T19:21:57.754Z,99970.83
2019-03-12T19:24:12.271Z,99970.13
2019-03-12T19:26:42.747Z,99966.64
2019-03-12T19:28:53.136Z,99964.66
2019-03-12T19:31:22.548Z,99961.92
2019-03-12T19:33:41.428Z,99961.77
2019-03-12T19:35:50.418Z,99958.69
2019-03-12T19:37:59.241Z,99957.87
2019-03-12T19:40:28.236Z,99959.73
2019-03-12T19:42:37.636Z,99955.48
2019-03-12T19:44:52.769Z,99955.34
2019-03-12T19:47:04.856Z,99958.83
2019-03-12T19:49:12.844Z,99954.55
2019-03-12T19:51:26.479Z,99947.39
2019-03-12T19:54:29.387Z,99954.14
2019-03-12T19:56:37.787Z,99947.63
2019-03-12T19:58:44.525Z,99943.56
2019-03-12T20:00:51.264Z,99935.06
2019-03-12T20:03:10.245Z,99942.20
2019-03-12T20:05:10.960Z,99943.39
2019-03-12T20:07:17.697Z,99944.12
2019-03-12T20:09:28.877Z,99934.39
2019-03-12T20:11:58.043Z,99931.23
2019-03-12T20:14:36.108Z,99927.55
2019-03-12T20:17:20.116Z,99928.05
2019-03-12T20:20:04.191Z,99931.74
2019-03-12T20:22:39.395Z,99926.31
2019-03-12T20:25:19.166Z,99924.94
2019-03-12T20:28:05.244Z,99919.51
2019-03-12T20:31:07.812Z,99911.12
2019-03-12T20:33:33.733Z,99914.36
2019-03-12T20:36:34.690Z,99914.53
2019-03-12T20:39:21.700Z,99910.03
2019-03-12T20:42:18.454Z,99912.30
2019-03-12T20:44:55.286Z,99903.06
2019-03-12T20:47:30.247Z,99901.36
2019-03-12T20:50:12.918Z,99892.28
2019-03-12T20:53:00.583Z,99891.55
2019-03-12T20:55:43.581Z,99889.36
2019-03-12T20:58:43.297Z,99881.83
2019-03-12T21:01:32.187Z,99883.05
2019-03-12T21:04:16.109Z,99876.56
2019-03-12T21:07:04.590Z,99874.05
2019-03-12T21:09:53.474Z,99877.53
2019-03-12T21:12:26.762Z,99874.13
2019-03-12T21:15:11.400Z,99864.56
2019-03-12T21:18:11.703Z,99860.83
2019-03-12T21:21:03.350Z,99854.58
2019-03-12T21:23:52.424Z,99853.69
2019-03-12T21:26:15.296Z,99845.09
2019-03-12T21:28:59.844Z,99846.80
2019-03-12T21:31:06.594Z,99851.30
2019-03-12T21:33:15.592Z,99846.19
2019-03-12T21:35:21.722Z,99842.30
2019-03-12T21:37:28.392Z,99844.41
2019-03-12T21:39:35.154Z,99847.16
2019-03-12T21:41:41.921Z,99841.64
2019-03-12T21:43:48.665Z,99840.11
2019-03-12T21:45:55.429Z,99842.42
2019-03-12T21:48:02.100Z,99839.27
2019-03-12T21:50:10.966Z,99837.64
2019-03-12T21:52:17.962Z,99837.64
2019-03-12T21:54:24.633Z,99836.83
2019-03-12T21:56:31.368Z,99830.59
2019-03-12T21:58:38.140Z,99831.00
2019-03-12T22:00:44.799Z,99834.00
2019-03-12T22:02:51.468Z,99830.83
2019-03-12T22:04:58.246Z,99828.67
2019-03-12T22:07:04.921Z,99820.83
2019-03-12T22:09:11.652Z,99829.55
2019-03-12T22:11:19.886Z,99823.31
2019-03-12T22:13:26.552Z,99822.09
2019-03-12T22:15:33.231Z,99818.77
2019-03-12T22:17:40.110Z,99817.39
2019-03-12T22:19:46.852Z,99812.97
2019-03-12T22:21:57.881Z,99809.26
2019-03-12T22:24:06.973Z,99802.98
2019-03-12T22:26:14.709Z,99804.91
2019-03-12T22:28:21.370Z,99802.00
2019-03-12T22:30:29.063Z,99792.58
2019-03-12T22:32:35.795Z,99790.94
2019-03-12T22:34:42.463Z,99794.84
2019-03-12T22:36:49.156Z,99788.41
2019-03-12T22:38:58.367Z,99791.16
2019-03-12T22:41:05.026Z,99784.92
2019-03-12T22:43:11.738Z,99778.22
2019-03-12T22:45:18.613Z,99771.54
2019-03-12T22:47:25.259Z,99773.44
2019-03-12T22:49:31.954Z,99764.98
2019-03-12T22:51:38.686Z,99768.67
2019-03-12T22:53:45.356Z,99762.78
2019-03-12T22:55:52.045Z,99757.26
2019-03-12T22:57:58.713Z,99759.08
2019-03-12T23:00:23.233Z,99757.05
2019-03-12T23:02:47.440Z,99747.63
2019-03-12T23:05:14.536Z,99743.84
2019-03-12T23:07:38.892Z,99736.25
2019-03-12T23:09:47.218Z,99731.28
2019-03-12T23:11:58.341Z,99727.56
2019-03-12T23:14:05.517Z,99724.01
2019-03-12T23:16:12.816Z,99717.93
2019-03-12T23:18:19.858Z,99718.70
2019-03-12T23:20:26.792Z,99707.29
2019-03-12T23:22:33.554Z,99712.73
2019-03-12T23:24:40.293Z,99705.22
2019-03-12T23:26:46.966Z,99706.88
2019-03-12T23:28:55.197Z,99699.35
2019-03-12T23:31:02.060Z,99699.20
2019-03-12T23:33:08.723Z,99692.16
2019-03-12T23:35:15.433Z,99688.19
2019-03-12T23:37:22.194Z,99684.94
2019-03-12T23:39:28.866Z,99681.05
2019-03-12T23:41:35.578Z,99676.19
2019-03-12T23:43:42.253Z,99670.04
2019-03-12T23:45:48.915Z,99671.74
2019-03-12T23:47:55.614Z,99670.19
2019-03-12T23:50:02.286Z,99660.63
2019-03-12T23:52:08.964Z,99655.70
2019-03-12T23:54:15.661Z,99652.70
2019-03-12T23:56:22.431Z,99645.69
2019-03-12T23:58:31.480Z,99638.44
